sensor_id;sensor_type;location;lat;lon;timestamp;P1;durP1;ratioP1;P2;durP2;ratioP2
14799;SDS011;7491;57.750;11.970;2023-09-19T00:00:55;25.50;;;20.17;;
14799;SDS011;7491;57.750;11.970;2023-09-19T00:03:22;25.15;;;20.00;;
14799;SDS011;7491;57.750;11.970;2023-09-19T00:05:51;29.02;;;19.88;;
14799;SDS011;7491;57.750;11.970;2023-09-19T00:08:18;32.53;;;21.02;;
14799;SDS011;7491;57.750;11.970;2023-09-19T00:10:48;29.15;;;20.45;;
14799;SDS011;7491;57.750;11.970;2023-09-19T00:13:15;31.05;;;20.20;;
14799;SDS011;7491;57.750;11.970;2023-09-19T00:15:42;27.15;;;19.42;;
14799;SDS011;7491;57.750;11.970;2023-09-19T00:18:13;29.27;;;19.10;;
14799;SDS011;7491;57.750;11.970;2023-09-19T00:20:40;26.27;;;19.27;;
14799;SDS011;7491;57.750;11.970;2023-09-19T00:23:09;23.88;;;18.23;;
14799;SDS011;7491;57.750;11.970;2023-09-19T00:25:36;24.48;;;19.45;;
14799;SDS011;7491;57.750;11.970;2023-09-19T00:28:07;26.23;;;18.50;;
14799;SDS011;7491;57.750;11.970;2023-09-19T00:30:34;21.13;;;17.70;;
14799;SDS011;7491;57.750;11.970;2023-09-19T00:33:03;23.75;;;17.88;;
14799;SDS011;7491;57.750;11.970;2023-09-19T00:35:31;24.48;;;19.00;;
14799;SDS011;7491;57.750;11.970;2023-09-19T00:37:58;29.25;;;19.65;;
14799;SDS011;7491;57.750;11.970;2023-09-19T00:40:27;24.98;;;19.05;;
14799;SDS011;7491;57.750;11.970;2023-09-19T00:42:57;23.83;;;18.65;;
14799;SDS011;7491;57.750;11.970;2023-09-19T00:45:25;23.45;;;18.55;;
14799;SDS011;7491;57.750;11.970;2023-09-19T00:47:53;24.48;;;18.27;;
14799;SDS011;7491;57.750;11.970;2023-09-19T00:50:21;23.38;;;18.08;;
14799;SDS011;7491;57.750;11.970;2023-09-19T00:52:52;23.67;;;18.33;;
14799;SDS011;7491;57.750;11.970;2023-09-19T00:55:21;21.90;;;17.73;;
14799;SDS011;7491;57.750;11.970;2023-09-19T00:57:49;22.70;;;17.95;;
14799;SDS011;7491;57.750;11.970;2023-09-19T01:00:16;22.42;;;18.40;;
14799;SDS011;7491;57.750;11.970;2023-09-19T01:02:45;26.27;;;17.63;;
14799;SDS011;7491;57.750;11.970;2023-09-19T01:05:12;23.75;;;19.00;;
14799;SDS011;7491;57.750;11.970;2023-09-19T01:07:39;21.73;;;19.00;;
14799;SDS011;7491;57.750;11.970;2023-09-19T01:10:06;23.17;;;18.98;;
14799;SDS011;7491;57.750;11.970;2023-09-19T01:12:39;24.17;;;17.83;;
14799;SDS011;7491;57.750;11.970;2023-09-19T01:15:17;22.27;;;17.98;;
14799;SDS011;7491;57.750;11.970;2023-09-19T01:17:52;29.48;;;19.00;;
14799;SDS011;7491;57.750;11.970;2023-09-19T01:20:27;26.42;;;17.95;;
14799;SDS011;7491;57.750;11.970;2023-09-19T01:23:06;24.75;;;18.40;;
14799;SDS011;7491;57.750;11.970;2023-09-19T01:25:49;25.17;;;18.25;;
14799;SDS011;7491;57.750;11.970;2023-09-19T01:28:31;23.63;;;18.60;;
14799;SDS011;7491;57.750;11.970;2023-09-19T01:31:03;25.45;;;18.27;;
14799;SDS011;7491;57.750;11.970;2023-09-19T01:36:26;22.40;;;19.00;;
14799;SDS011;7491;57.750;11.970;2023-09-19T01:38:55;20.63;;;18.35;;
14799;SDS011;7491;57.750;11.970;2023-09-19T01:41:35;24.55;;;19.77;;
14799;SDS011;7491;57.750;11.970;2023-09-19T01:44:13;30.60;;;22.33;;
14799;SDS011;7491;57.750;11.970;2023-09-19T01:46:49;25.30;;;19.80;;
14799;SDS011;7491;57.750;11.970;2023-09-19T01:49:18;25.15;;;18.92;;
14799;SDS011;7491;57.750;11.970;2023-09-19T01:51:56;27.52;;;18.35;;
14799;SDS011;7491;57.750;11.970;2023-09-19T01:54:33;22.65;;;18.70;;
14799;SDS011;7491;57.750;11.970;2023-09-19T01:57:06;23.38;;;18.67;;
14799;SDS011;7491;57.750;11.970;2023-09-19T01:59:41;22.10;;;16.65;;
14799;SDS011;7491;57.750;11.970;2023-09-19T02:02:17;20.50;;;16.20;;
14799;SDS011;7491;57.750;11.970;2023-09-19T02:04:47;20.98;;;17.48;;
14799;SDS011;7491;57.750;11.970;2023-09-19T02:07:15;22.42;;;18.45;;
14799;SDS011;7491;57.750;11.970;2023-09-19T02:09:43;21.17;;;18.20;;
14799;SDS011;7491;57.750;11.970;2023-09-19T02:12:09;22.95;;;18.60;;
14799;SDS011;7491;57.750;11.970;2023-09-19T02:14:36;22.95;;;17.73;;
14799;SDS011;7491;57.750;11.970;2023-09-19T02:17:03;28.95;;;20.25;;
14799;SDS011;7491;57.750;11.970;2023-09-19T02:19:33;24.23;;;19.63;;
14799;SDS011;7491;57.750;11.970;2023-09-19T02:22:00;24.98;;;19.00;;
14799;SDS011;7491;57.750;11.970;2023-09-19T02:24:28;23.17;;;18.50;;
14799;SDS011;7491;57.750;11.970;2023-09-19T02:26:55;24.33;;;19.75;;
14799;SDS011;7491;57.750;11.970;2023-09-19T02:29:22;23.42;;;18.63;;
14799;SDS011;7491;57.750;11.970;2023-09-19T02:31:49;25.17;;;19.35;;
14799;SDS011;7491;57.750;11.970;2023-09-19T02:34:16;26.45;;;19.73;;
14799;SDS011;7491;57.750;11.970;2023-09-19T02:36:45;22.25;;;18.48;;
14799;SDS011;7491;57.750;11.970;2023-09-19T02:39:12;25.25;;;19.15;;
14799;SDS011;7491;57.750;11.970;2023-09-19T02:41:39;25.27;;;19.20;;
14799;SDS011;7491;57.750;11.970;2023-09-19T02:44:06;24.45;;;17.92;;
14799;SDS011;7491;57.750;11.970;2023-09-19T02:46:34;21.65;;;16.73;;
14799;SDS011;7491;57.750;11.970;2023-09-19T02:49:02;23.85;;;17.33;;
14799;SDS011;7491;57.750;11.970;2023-09-19T02:51:30;18.08;;;13.32;;
14799;SDS011;7491;57.750;11.970;2023-09-19T02:53:58;17.73;;;11.90;;
14799;SDS011;7491;57.750;11.970;2023-09-19T02:56:25;19.85;;;12.88;;
14799;SDS011;7491;57.750;11.970;2023-09-19T02:58:52;16.75;;;10.73;;
14799;SDS011;7491;57.750;11.970;2023-09-19T03:01:20;16.70;;;10.77;;
14799;SDS011;7491;57.750;11.970;2023-09-19T03:03:47;16.27;;;9.85;;
14799;SDS011;7491;57.750;11.970;2023-09-19T03:06:14;17.42;;;9.82;;
14799;SDS011;7491;57.750;11.970;2023-09-19T03:08:45;14.23;;;8.27;;
14799;SDS011;7491;57.750;11.970;2023-09-19T03:11:15;15.60;;;8.93;;
14799;SDS011;7491;57.750;11.970;2023-09-19T03:13:49;11.30;;;8.52;;
14799;SDS011;7491;57.750;11.970;2023-09-19T03:16:17;14.55;;;7.78;;
14799;SDS011;7491;57.750;11.970;2023-09-19T03:18:46;15.57;;;8.30;;
14799;SDS011;7491;57.750;11.970;2023-09-19T03:21:13;17.83;;;7.47;;
14799;SDS011;7491;57.750;11.970;2023-09-19T03:23:41;9.05;;;6.38;;
14799;SDS011;7491;57.750;11.970;2023-09-19T03:26:10;15.40;;;6.90;;
14799;SDS011;7491;57.750;11.970;2023-09-19T03:28:38;15.38;;;5.95;;
14799;SDS011;7491;57.750;11.970;2023-09-19T03:31:06;17.60;;;6.30;;
14799;SDS011;7491;57.750;11.970;2023-09-19T03:33:33;16.48;;;5.63;;
14799;SDS011;7491;57.750;11.970;2023-09-19T03:36:00;10.93;;;5.32;;
14799;SDS011;7491;57.750;11.970;2023-09-19T03:38:29;9.13;;;5.40;;
14799;SDS011;7491;57.750;11.970;2023-09-19T03:40:57;11.68;;;5.35;;
14799;SDS011;7491;57.750;11.970;2023-09-19T03:43:24;13.30;;;5.32;;
14799;SDS011;7491;57.750;11.970;2023-09-19T03:45:52;12.65;;;5.45;;
14799;SDS011;7491;57.750;11.970;2023-09-19T03:48:20;13.10;;;5.35;;
14799;SDS011;7491;57.750;11.970;2023-09-19T03:50:48;13.15;;;5.18;;
14799;SDS011;7491;57.750;11.970;2023-09-19T03:53:15;15.55;;;4.78;;
14799;SDS011;7491;57.750;11.970;2023-09-19T03:55:41;14.10;;;5.00;;
14799;SDS011;7491;57.750;11.970;2023-09-19T03:58:11;12.05;;;3.90;;
14799;SDS011;7491;57.750;11.970;2023-09-19T04:00:38;12.65;;;3.83;;
14799;SDS011;7491;57.750;11.970;2023-09-19T04:03:07;13.63;;;4.25;;
14799;SDS011;7491;57.750;11.970;2023-09-19T04:05:35;15.85;;;4.15;;
14799;SDS011;7491;57.750;11.970;2023-09-19T04:08:02;9.18;;;3.80;;
14799;SDS011;7491;57.750;11.970;2023-09-19T04:10:30;12.52;;;3.72;;
14799;SDS011;7491;57.750;11.970;2023-09-19T04:12:56;14.40;;;4.28;;
14799;SDS011;7491;57.750;11.970;2023-09-19T04:15:23;10.88;;;3.80;;
14799;SDS011;7491;57.750;11.970;2023-09-19T04:17:50;14.95;;;3.83;;
14799;SDS011;7491;57.750;11.970;2023-09-19T04:20:19;11.85;;;3.40;;
14799;SDS011;7491;57.750;11.970;2023-09-19T04:22:48;12.57;;;3.72;;
14799;SDS011;7491;57.750;11.970;2023-09-19T04:25:15;12.70;;;3.70;;
14799;SDS011;7491;57.750;11.970;2023-09-19T04:27:42;18.63;;;4.30;;
14799;SDS011;7491;57.750;11.970;2023-09-19T04:30:10;14.05;;;4.13;;
14799;SDS011;7491;57.750;11.970;2023-09-19T04:32:37;15.57;;;4.50;;
14799;SDS011;7491;57.750;11.970;2023-09-19T04:35:06;18.35;;;4.53;;
14799;SDS011;7491;57.750;11.970;2023-09-19T04:37:36;10.75;;;4.18;;
14799;SDS011;7491;57.750;11.970;2023-09-19T04:40:05;13.32;;;3.90;;
14799;SDS011;7491;57.750;11.970;2023-09-19T04:42:37;10.40;;;4.57;;
14799;SDS011;7491;57.750;11.970;2023-09-19T04:45:05;12.57;;;4.53;;
14799;SDS011;7491;57.750;11.970;2023-09-19T04:47:33;8.20;;;3.03;;
14799;SDS011;7491;57.750;11.970;2023-09-19T04:49:59;10.77;;;3.00;;
14799;SDS011;7491;57.750;11.970;2023-09-19T04:52:26;9.05;;;3.08;;
14799;SDS011;7491;57.750;11.970;2023-09-19T04:54:54;10.50;;;2.63;;
14799;SDS011;7491;57.750;11.970;2023-09-19T04:57:21;9.23;;;2.65;;
14799;SDS011;7491;57.750;11.970;2023-09-19T04:59:50;9.15;;;2.72;;
14799;SDS011;7491;57.750;11.970;2023-09-19T05:02:17;10.65;;;2.78;;
14799;SDS011;7491;57.750;11.970;2023-09-19T05:04:44;7.78;;;2.10;;
14799;SDS011;7491;57.750;11.970;2023-09-19T05:07:11;8.80;;;2.13;;
14799;SDS011;7491;57.750;11.970;2023-09-19T05:09:37;9.40;;;2.30;;
14799;SDS011;7491;57.750;11.970;2023-09-19T05:12:06;6.30;;;2.10;;
14799;SDS011;7491;57.750;11.970;2023-09-19T05:14:35;7.63;;;1.95;;
14799;SDS011;7491;57.750;11.970;2023-09-19T05:17:02;6.57;;;2.00;;
14799;SDS011;7491;57.750;11.970;2023-09-19T05:19:30;7.05;;;2.05;;
14799;SDS011;7491;57.750;11.970;2023-09-19T05:21:57;5.93;;;1.73;;
14799;SDS011;7491;57.750;11.970;2023-09-19T05:24:23;5.38;;;1.60;;
14799;SDS011;7491;57.750;11.970;2023-09-19T05:26:51;10.57;;;2.30;;
14799;SDS011;7491;57.750;11.970;2023-09-19T05:29:19;10.93;;;1.75;;
14799;SDS011;7491;57.750;11.970;2023-09-19T05:31:46;10.80;;;2.22;;
14799;SDS011;7491;57.750;11.970;2023-09-19T05:34:13;6.93;;;1.77;;
14799;SDS011;7491;57.750;11.970;2023-09-19T05:36:40;7.53;;;1.92;;
14799;SDS011;7491;57.750;11.970;2023-09-19T05:39:07;9.02;;;2.08;;
14799;SDS011;7491;57.750;11.970;2023-09-19T05:41:34;5.85;;;1.70;;
14799;SDS011;7491;57.750;11.970;2023-09-19T05:44:01;7.05;;;1.90;;
14799;SDS011;7491;57.750;11.970;2023-09-19T05:46:30;6.15;;;1.70;;
14799;SDS011;7491;57.750;11.970;2023-09-19T05:48:56;5.22;;;2.05;;
14799;SDS011;7491;57.750;11.970;2023-09-19T05:51:23;7.68;;;2.10;;
14799;SDS011;7491;57.750;11.970;2023-09-19T05:53:53;6.47;;;1.90;;
14799;SDS011;7491;57.750;11.970;2023-09-19T05:56:21;5.22;;;1.52;;
14799;SDS011;7491;57.750;11.970;2023-09-19T05:58:47;7.00;;;1.70;;
14799;SDS011;7491;57.750;11.970;2023-09-19T06:01:17;7.38;;;1.50;;
14799;SDS011;7491;57.750;11.970;2023-09-19T06:03:45;10.57;;;2.08;;
14799;SDS011;7491;57.750;11.970;2023-09-19T06:06:12;8.13;;;1.90;;
14799;SDS011;7491;57.750;11.970;2023-09-19T06:08:39;9.45;;;2.20;;
14799;SDS011;7491;57.750;11.970;2023-09-19T06:11:06;8.07;;;2.40;;
14799;SDS011;7491;57.750;11.970;2023-09-19T06:13:34;6.53;;;2.35;;
14799;SDS011;7491;57.750;11.970;2023-09-19T06:16:01;5.53;;;2.40;;
14799;SDS011;7491;57.750;11.970;2023-09-19T06:18:30;8.18;;;2.10;;
14799;SDS011;7491;57.750;11.970;2023-09-19T06:21:00;7.80;;;2.17;;
14799;SDS011;7491;57.750;11.970;2023-09-19T06:23:32;7.93;;;2.20;;
14799;SDS011;7491;57.750;11.970;2023-09-19T06:25:59;5.93;;;1.95;;
14799;SDS011;7491;57.750;11.970;2023-09-19T06:28:26;11.27;;;2.00;;
14799;SDS011;7491;57.750;11.970;2023-09-19T06:30:53;6.40;;;2.05;;
14799;SDS011;7491;57.750;11.970;2023-09-19T06:33:20;5.00;;;1.30;;
14799;SDS011;7491;57.750;11.970;2023-09-19T06:35:47;6.28;;;1.58;;
14799;SDS011;7491;57.750;11.970;2023-09-19T06:38:15;6.07;;;1.52;;
14799;SDS011;7491;57.750;11.970;2023-09-19T06:40:44;10.40;;;1.73;;
14799;SDS011;7491;57.750;11.970;2023-09-19T06:43:11;4.13;;;1.45;;
14799;SDS011;7491;57.750;11.970;2023-09-19T06:45:38;8.20;;;1.50;;
14799;SDS011;7491;57.750;11.970;2023-09-19T06:48:05;4.47;;;1.63;;
14799;SDS011;7491;57.750;11.970;2023-09-19T06:50:32;7.20;;;1.30;;
14799;SDS011;7491;57.750;11.970;2023-09-19T06:52:59;8.35;;;1.73;;
14799;SDS011;7491;57.750;11.970;2023-09-19T06:55:29;8.23;;;2.15;;
14799;SDS011;7491;57.750;11.970;2023-09-19T06:57:56;13.35;;;1.67;;
14799;SDS011;7491;57.750;11.970;2023-09-19T07:00:24;9.80;;;2.10;;
14799;SDS011;7491;57.750;11.970;2023-09-19T07:02:56;8.55;;;1.90;;
14799;SDS011;7491;57.750;11.970;2023-09-19T07:05:25;10.55;;;2.00;;
14799;SDS011;7491;57.750;11.970;2023-09-19T07:07:53;8.15;;;2.08;;
14799;SDS011;7491;57.750;11.970;2023-09-19T07:10:20;8.95;;;2.38;;
14799;SDS011;7491;57.750;11.970;2023-09-19T07:12:54;8.82;;;1.98;;
14799;SDS011;7491;57.750;11.970;2023-09-19T07:15:22;8.35;;;2.33;;
14799;SDS011;7491;57.750;11.970;2023-09-19T07:17:50;9.63;;;1.95;;
14799;SDS011;7491;57.750;11.970;2023-09-19T07:20:17;10.27;;;2.20;;
14799;SDS011;7491;57.750;11.970;2023-09-19T07:22:43;7.35;;;2.35;;
14799;SDS011;7491;57.750;11.970;2023-09-19T07:25:10;8.82;;;2.08;;
14799;SDS011;7491;57.750;11.970;2023-09-19T07:27:39;8.77;;;2.25;;
14799;SDS011;7491;57.750;11.970;2023-09-19T07:30:08;9.65;;;2.38;;
14799;SDS011;7491;57.750;11.970;2023-09-19T07:32:36;5.63;;;1.98;;
14799;SDS011;7491;57.750;11.970;2023-09-19T07:35:04;10.40;;;2.30;;
14799;SDS011;7491;57.750;11.970;2023-09-19T07:37:31;12.07;;;2.30;;
14799;SDS011;7491;57.750;11.970;2023-09-19T07:39:58;10.02;;;2.88;;
14799;SDS011;7491;57.750;11.970;2023-09-19T07:42:26;9.85;;;2.05;;
14799;SDS011;7491;57.750;11.970;2023-09-19T07:44:52;8.45;;;2.10;;
14799;SDS011;7491;57.750;11.970;2023-09-19T07:47:21;7.35;;;1.98;;
14799;SDS011;7491;57.750;11.970;2023-09-19T07:49:47;9.70;;;1.98;;
14799;SDS011;7491;57.750;11.970;2023-09-19T07:52:14;13.38;;;2.47;;
14799;SDS011;7491;57.750;11.970;2023-09-19T07:54:41;7.95;;;1.60;;
14799;SDS011;7491;57.750;11.970;2023-09-19T07:57:09;7.40;;;2.25;;
14799;SDS011;7491;57.750;11.970;2023-09-19T07:59:37;8.90;;;2.42;;
14799;SDS011;7491;57.750;11.970;2023-09-19T08:02:07;6.22;;;2.33;;
14799;SDS011;7491;57.750;11.970;2023-09-19T08:04:42;8.65;;;2.20;;
14799;SDS011;7491;57.750;11.970;2023-09-19T08:07:09;10.45;;;2.05;;
14799;SDS011;7491;57.750;11.970;2023-09-19T08:09:36;8.18;;;2.25;;
14799;SDS011;7491;57.750;11.970;2023-09-19T08:12:04;10.50;;;2.47;;
14799;SDS011;7491;57.750;11.970;2023-09-19T08:14:31;9.80;;;2.67;;
14799;SDS011;7491;57.750;11.970;2023-09-19T08:16:58;11.85;;;2.63;;
14799;SDS011;7491;57.750;11.970;2023-09-19T08:19:25;9.27;;;2.17;;
14799;SDS011;7491;57.750;11.970;2023-09-19T08:21:55;9.18;;;2.20;;
14799;SDS011;7491;57.750;11.970;2023-09-19T08:24:24;12.98;;;2.70;;
14799;SDS011;7491;57.750;11.970;2023-09-19T08:26:53;7.40;;;2.35;;
14799;SDS011;7491;57.750;11.970;2023-09-19T08:29:21;11.48;;;3.17;;
14799;SDS011;7491;57.750;11.970;2023-09-19T08:31:52;12.88;;;3.95;;
14799;SDS011;7491;57.750;11.970;2023-09-19T08:34:20;17.13;;;2.85;;
14799;SDS011;7491;57.750;11.970;2023-09-19T08:36:48;12.93;;;3.15;;
14799;SDS011;7491;57.750;11.970;2023-09-19T08:39:19;11.88;;;3.08;;
14799;SDS011;7491;57.750;11.970;2023-09-19T08:41:46;11.00;;;2.50;;
14799;SDS011;7491;57.750;11.970;2023-09-19T08:44:12;8.15;;;2.72;;
14799;SDS011;7491;57.750;11.970;2023-09-19T08:46:40;8.23;;;2.58;;
14799;SDS011;7491;57.750;11.970;2023-09-19T08:49:08;8.75;;;2.28;;
14799;SDS011;7491;57.750;11.970;2023-09-19T08:51:47;20.27;;;2.70;;
14799;SDS011;7491;57.750;11.970;2023-09-19T08:54:25;10.82;;;2.45;;
14799;SDS011;7491;57.750;11.970;2023-09-19T08:57:00;11.77;;;3.20;;
14799;SDS011;7491;57.750;11.970;2023-09-19T08:59:33;8.30;;;2.08;;
14799;SDS011;7491;57.750;11.970;2023-09-19T09:02:04;8.18;;;2.03;;
14799;SDS011;7491;57.750;11.970;2023-09-19T09:04:37;5.97;;;1.80;;
14799;SDS011;7491;57.750;11.970;2023-09-19T09:07:06;11.52;;;2.50;;
14799;SDS011;7491;57.750;11.970;2023-09-19T09:09:38;9.23;;;2.38;;
14799;SDS011;7491;57.750;11.970;2023-09-19T09:12:07;7.68;;;2.33;;
14799;SDS011;7491;57.750;11.970;2023-09-19T09:14:37;9.57;;;2.13;;
14799;SDS011;7491;57.750;11.970;2023-09-19T09:17:04;9.48;;;2.13;;
14799;SDS011;7491;57.750;11.970;2023-09-19T09:19:32;9.50;;;2.03;;
14799;SDS011;7491;57.750;11.970;2023-09-19T09:22:08;6.03;;;1.80;;
14799;SDS011;7491;57.750;11.970;2023-09-19T09:24:36;7.30;;;1.88;;
14799;SDS011;7491;57.750;11.970;2023-09-19T09:27:06;4.32;;;1.30;;
14799;SDS011;7491;57.750;11.970;2023-09-19T09:29:43;4.93;;;1.30;;
14799;SDS011;7491;57.750;11.970;2023-09-19T09:32:21;3.95;;;1.40;;
14799;SDS011;7491;57.750;11.970;2023-09-19T09:34:49;5.40;;;1.60;;
14799;SDS011;7491;57.750;11.970;2023-09-19T09:37:17;6.78;;;1.40;;
14799;SDS011;7491;57.750;11.970;2023-09-19T09:39:49;5.00;;;1.85;;
14799;SDS011;7491;57.750;11.970;2023-09-19T09:45:13;7.90;;;1.98;;
14799;SDS011;7491;57.750;11.970;2023-09-19T09:47:41;7.25;;;1.70;;
14799;SDS011;7491;57.750;11.970;2023-09-19T09:50:22;7.95;;;1.70;;
14799;SDS011;7491;57.750;11.970;2023-09-19T09:52:54;5.47;;;1.58;;
14799;SDS011;7491;57.750;11.970;2023-09-19T09:55:26;7.60;;;2.00;;
14799;SDS011;7491;57.750;11.970;2023-09-19T09:58:01;7.95;;;1.40;;
14799;SDS011;7491;57.750;11.970;2023-09-19T10:00:51;4.18;;;1.38;;
14799;SDS011;7491;57.750;11.970;2023-09-19T10:03:30;5.00;;;1.42;;
14799;SDS011;7491;57.750;11.970;2023-09-19T10:05:59;5.40;;;1.80;;
14799;SDS011;7491;57.750;11.970;2023-09-19T10:08:34;4.18;;;1.65;;
14799;SDS011;7491;57.750;11.970;2023-09-19T10:11:10;7.43;;;1.33;;
14799;SDS011;7491;57.750;11.970;2023-09-19T10:13:43;4.95;;;1.30;;
14799;SDS011;7491;57.750;11.970;2023-09-19T10:16:12;3.67;;;1.17;;
14799;SDS011;7491;57.750;11.970;2023-09-19T10:18:44;5.13;;;1.50;;
14799;SDS011;7491;57.750;11.970;2023-09-19T10:21:15;5.10;;;1.45;;
14799;SDS011;7491;57.750;11.970;2023-09-19T10:23:47;5.00;;;1.50;;
14799;SDS011;7491;57.750;11.970;2023-09-19T10:26:17;4.05;;;1.50;;
14799;SDS011;7491;57.750;11.970;2023-09-19T10:28:47;8.70;;;1.08;;
14799;SDS011;7491;57.750;11.970;2023-09-19T10:31:17;6.50;;;1.50;;
14799;SDS011;7491;57.750;11.970;2023-09-19T10:33:46;5.82;;;1.40;;
14799;SDS011;7491;57.750;11.970;2023-09-19T10:36:15;5.50;;;1.80;;
14799;SDS011;7491;57.750;11.970;2023-09-19T10:38:44;5.22;;;1.27;;
14799;SDS011;7491;57.750;11.970;2023-09-19T10:41:14;5.97;;;1.40;;
14799;SDS011;7491;57.750;11.970;2023-09-19T10:43:42;4.43;;;1.20;;
14799;SDS011;7491;57.750;11.970;2023-09-19T10:46:14;5.20;;;1.38;;
14799;SDS011;7491;57.750;11.970;2023-09-19T10:48:40;5.57;;;1.25;;
14799;SDS011;7491;57.750;11.970;2023-09-19T10:51:09;6.93;;;1.33;;
14799;SDS011;7491;57.750;11.970;2023-09-19T10:53:45;8.25;;;1.40;;
14799;SDS011;7491;57.750;11.970;2023-09-19T10:56:18;4.93;;;1.88;;
14799;SDS011;7491;57.750;11.970;2023-09-19T10:58:51;6.40;;;1.92;;
14799;SDS011;7491;57.750;11.970;2023-09-19T11:01:19;6.30;;;1.40;;
14799;SDS011;7491;57.750;11.970;2023-09-19T11:03:46;3.58;;;1.08;;
14799;SDS011;7491;57.750;11.970;2023-09-19T11:06:18;4.35;;;1.50;;
14799;SDS011;7491;57.750;11.970;2023-09-19T11:08:55;5.75;;;1.70;;
14799;SDS011;7491;57.750;11.970;2023-09-19T11:11:48;7.47;;;1.60;;
14799;SDS011;7491;57.750;11.970;2023-09-19T11:14:38;5.10;;;1.40;;
14799;SDS011;7491;57.750;11.970;2023-09-19T11:20:22;8.23;;;1.85;;
14799;SDS011;7491;57.750;11.970;2023-09-19T11:23:18;5.75;;;1.40;;
14799;SDS011;7491;57.750;11.970;2023-09-19T11:25:50;15.00;;;2.03;;
14799;SDS011;7491;57.750;11.970;2023-09-19T11:28:29;8.10;;;1.77;;
14799;SDS011;7491;57.750;11.970;2023-09-19T11:40:46;3.33;;;1.10;;
14799;SDS011;7491;57.750;11.970;2023-09-19T11:43:32;7.63;;;1.10;;
14799;SDS011;7491;57.750;11.970;2023-09-19T11:46:01;3.97;;;1.17;;
14799;SDS011;7491;57.750;11.970;2023-09-19T11:48:30;3.33;;;1.52;;
14799;SDS011;7491;57.750;11.970;2023-09-19T11:51:00;3.08;;;1.08;;
14799;SDS011;7491;57.750;11.970;2023-09-19T11:53:32;4.75;;;1.25;;
14799;SDS011;7491;57.750;11.970;2023-09-19T11:56:04;3.35;;;1.20;;
14799;SDS011;7491;57.750;11.970;2023-09-19T11:58:35;6.10;;;1.30;;
14799;SDS011;7491;57.750;11.970;2023-09-19T12:01:04;3.85;;;1.20;;
14799;SDS011;7491;57.750;11.970;2023-09-19T12:03:38;6.78;;;1.00;;
14799;SDS011;7491;57.750;11.970;2023-09-19T12:06:11;4.00;;;1.58;;
14799;SDS011;7491;57.750;11.970;2023-09-19T12:08:40;6.30;;;1.23;;
14799;SDS011;7491;57.750;11.970;2023-09-19T12:11:13;4.88;;;1.40;;
14799;SDS011;7491;57.750;11.970;2023-09-19T12:13:41;6.47;;;1.58;;
14799;SDS011;7491;57.750;11.970;2023-09-19T12:16:12;5.57;;;1.50;;
14799;SDS011;7491;57.750;11.970;2023-09-19T12:18:41;6.55;;;1.58;;
14799;SDS011;7491;57.750;11.970;2023-09-19T12:21:20;5.47;;;1.33;;
14799;SDS011;7491;57.750;11.970;2023-09-19T12:24:04;4.43;;;0.80;;
14799;SDS011;7491;57.750;11.970;2023-09-19T12:26:41;5.85;;;1.30;;
14799;SDS011;7491;57.750;11.970;2023-09-19T12:29:13;7.75;;;1.83;;
14799;SDS011;7491;57.750;11.970;2023-09-19T12:31:52;5.75;;;1.23;;
14799;SDS011;7491;57.750;11.970;2023-09-19T12:34:23;7.60;;;1.92;;
14799;SDS011;7491;57.750;11.970;2023-09-19T12:37:05;5.15;;;1.40;;
14799;SDS011;7491;57.750;11.970;2023-09-19T12:39:41;8.13;;;1.63;;
14799;SDS011;7491;57.750;11.970;2023-09-19T12:42:13;4.30;;;1.52;;
14799;SDS011;7491;57.750;11.970;2023-09-19T12:44:41;5.35;;;1.45;;
14799;SDS011;7491;57.750;11.970;2023-09-19T12:47:10;8.63;;;2.45;;
14799;SDS011;7491;57.750;11.970;2023-09-19T12:52:42;8.27;;;1.65;;
14799;SDS011;7491;57.750;11.970;2023-09-19T12:55:21;8.18;;;2.05;;
14799;SDS011;7491;57.750;11.970;2023-09-19T12:58:01;9.23;;;1.50;;
14799;SDS011;7491;57.750;11.970;2023-09-19T13:00:35;5.93;;;1.48;;
14799;SDS011;7491;57.750;11.970;2023-09-19T13:03:12;3.83;;;1.40;;
14799;SDS011;7491;57.750;11.970;2023-09-19T13:05:47;8.73;;;2.30;;
14799;SDS011;7491;57.750;11.970;2023-09-19T13:08:20;9.82;;;2.22;;
14799;SDS011;7491;57.750;11.970;2023-09-19T13:11:03;12.45;;;2.20;;
14799;SDS011;7491;57.750;11.970;2023-09-19T13:13:36;5.68;;;1.35;;
14799;SDS011;7491;57.750;11.970;2023-09-19T13:16:03;5.38;;;1.38;;
14799;SDS011;7491;57.750;11.970;2023-09-19T13:18:41;5.05;;;2.03;;
14799;SDS011;7491;57.750;11.970;2023-09-19T13:21:10;4.88;;;1.80;;
14799;SDS011;7491;57.750;11.970;2023-09-19T13:23:40;4.97;;;1.20;;
14799;SDS011;7491;57.750;11.970;2023-09-19T13:26:08;8.13;;;1.95;;
14799;SDS011;7491;57.750;11.970;2023-09-19T13:28:37;9.32;;;1.48;;
14799;SDS011;7491;57.750;11.970;2023-09-19T13:31:04;7.63;;;1.80;;
14799;SDS011;7491;57.750;11.970;2023-09-19T13:33:33;2.10;;;1.13;;
14799;SDS011;7491;57.750;11.970;2023-09-19T13:36:00;7.05;;;1.35;;
14799;SDS011;7491;57.750;11.970;2023-09-19T13:38:27;5.38;;;1.35;;
14799;SDS011;7491;57.750;11.970;2023-09-19T13:40:54;3.75;;;1.50;;
14799;SDS011;7491;57.750;11.970;2023-09-19T13:43:21;7.90;;;1.75;;
14799;SDS011;7491;57.750;11.970;2023-09-19T13:45:51;9.27;;;1.48;;
14799;SDS011;7491;57.750;11.970;2023-09-19T13:48:18;6.00;;;1.30;;
14799;SDS011;7491;57.750;11.970;2023-09-19T13:50:47;9.00;;;1.67;;
14799;SDS011;7491;57.750;11.970;2023-09-19T13:53:14;7.38;;;1.40;;
14799;SDS011;7491;57.750;11.970;2023-09-19T13:55:42;5.57;;;1.35;;
14799;SDS011;7491;57.750;11.970;2023-09-19T13:58:09;6.95;;;1.35;;
14799;SDS011;7491;57.750;11.970;2023-09-19T14:00:37;6.40;;;1.33;;
14799;SDS011;7491;57.750;11.970;2023-09-19T14:03:06;7.13;;;1.75;;
14799;SDS011;7491;57.750;11.970;2023-09-19T14:05:32;5.88;;;1.40;;
14799;SDS011;7491;57.750;11.970;2023-09-19T14:07:59;4.57;;;1.58;;
14799;SDS011;7491;57.750;11.970;2023-09-19T14:10:28;4.60;;;1.08;;
14799;SDS011;7491;57.750;11.970;2023-09-19T14:12:56;5.65;;;1.55;;
14799;SDS011;7491;57.750;11.970;2023-09-19T14:15:24;7.15;;;1.88;;
14799;SDS011;7491;57.750;11.970;2023-09-19T14:17:54;6.80;;;1.20;;
14799;SDS011;7491;57.750;11.970;2023-09-19T14:20:23;3.22;;;1.20;;
14799;SDS011;7491;57.750;11.970;2023-09-19T14:22:51;9.75;;;2.25;;
14799;SDS011;7491;57.750;11.970;2023-09-19T14:25:18;8.02;;;1.45;;
14799;SDS011;7491;57.750;11.970;2023-09-19T14:27:46;6.88;;;1.88;;
14799;SDS011;7491;57.750;11.970;2023-09-19T14:30:13;6.45;;;1.73;;
14799;SDS011;7491;57.750;11.970;2023-09-19T14:32:40;7.68;;;1.70;;
14799;SDS011;7491;57.750;11.970;2023-09-19T14:35:07;8.35;;;1.80;;
14799;SDS011;7491;57.750;11.970;2023-09-19T14:37:37;11.20;;;1.90;;
14799;SDS011;7491;57.750;11.970;2023-09-19T14:40:05;8.15;;;2.55;;
14799;SDS011;7491;57.750;11.970;2023-09-19T14:42:34;6.43;;;1.70;;
14799;SDS011;7491;57.750;11.970;2023-09-19T14:45:03;8.00;;;1.83;;
14799;SDS011;7491;57.750;11.970;2023-09-19T14:47:31;5.45;;;1.40;;
14799;SDS011;7491;57.750;11.970;2023-09-19T14:49:59;5.60;;;1.73;;
14799;SDS011;7491;57.750;11.970;2023-09-19T14:52:26;5.38;;;1.77;;
14799;SDS011;7491;57.750;11.970;2023-09-19T14:54:54;8.43;;;1.40;;
14799;SDS011;7491;57.750;11.970;2023-09-19T14:57:21;9.15;;;1.90;;
14799;SDS011;7491;57.750;11.970;2023-09-19T14:59:49;5.55;;;1.95;;
14799;SDS011;7491;57.750;11.970;2023-09-19T15:02:17;4.65;;;1.63;;
14799;SDS011;7491;57.750;11.970;2023-09-19T15:04:44;4.53;;;1.48;;
14799;SDS011;7491;57.750;11.970;2023-09-19T15:07:11;11.00;;;1.65;;
14799;SDS011;7491;57.750;11.970;2023-09-19T15:09:40;5.35;;;1.30;;
14799;SDS011;7491;57.750;11.970;2023-09-19T15:12:08;5.82;;;1.85;;
14799;SDS011;7491;57.750;11.970;2023-09-19T15:14:35;6.43;;;1.65;;
14799;SDS011;7491;57.750;11.970;2023-09-19T15:17:02;5.68;;;2.33;;